
Technical Web Developer
| Date Time MST |
Temp °F |
RH % |
DewPt °F |
Wind mph |
Dir ° |
Gust mph |
Dir ° |
Press in Hg |
Solar W/m^2 |
Prec in |
|---|---|---|---|---|---|---|---|---|---|---|
| 2026-05-05 08:50 | 34.3 | 95.2 | 33.1 | 2.2 | 236 | 3.0 | 260 | 24.846 | 80.9 | 0.00 |
| 2026-05-05 08:45 | 34.3 | 95.3 | 33.1 | 1.6 | 262 | 2.9 | 262 | 24.846 | 81.6 | 0.01 |
| 2026-05-05 08:40 | 34.0 | 95.3 | 32.8 | 2.1 | 268 | 3.0 | 286 | 24.846 | 79.7 | 0.01 |
| 2026-05-05 08:35 | 33.7 | 95.3 | 32.5 | 1.7 | 283 | 2.1 | 288 | 24.846 | 85.3 | 0.01 |
| 2026-05-05 08:30 | 33.5 | 95.2 | 32.3 | 1.4 | 307 | 1.8 | 310 | 24.846 | 79.6 | 0.01 |
| 2026-05-05 08:25 | 33.5 | 95.0 | 32.2 | 0.4 | 310 | 1.3 | 310 | 24.843 | 75.2 | 0.01 |
| 2026-05-05 08:20 | 33.6 | 95.1 | 32.4 | 0.0 | 296 | 0.0 | 296 | 24.843 | 76.4 | 0.01 |
| 2026-05-05 08:15 | 33.5 | 95.2 | 32.3 | 0.0 | 296 | 0.0 | 296 | 24.844 | 65.2 | 0.00 |
| 2026-05-05 08:10 | 33.5 | 95.2 | 32.3 | 0.0 | 296 | 0.0 | 296 | 24.843 | 51.0 | 0.02 |
| 2026-05-05 08:05 | 33.5 | 95.3 | 32.3 | 0.1 | 296 | 0.9 | 294 | 24.843 | 51.0 | 0.00 |
| 2026-05-05 08:00 | 33.3 | 95.4 | 32.1 | 1.6 | 294 | 2.3 | 315 | 24.843 | 58.5 | 0.00 |
| 2026-05-05 07:55 | 33.1 | 95.4 | 32.0 | 1.9 | 315 | 2.5 | 319 | 24.843 | 63.8 | 0.00 |
| 2026-05-05 07:50 | 33.0 | 95.4 | 31.9 | 2.7 | 319 | 3.1 | 322 | 24.841 | 61.6 | 0.00 |
| 2026-05-05 07:45 | 33.1 | 95.3 | 31.9 | 3.2 | 323 | 3.4 | 320 | 24.839 | 49.5 | 0.00 |
| 2026-05-05 07:40 | 33.0 | 95.2 | 31.8 | 3.3 | 315 | 3.6 | 315 | 24.839 | 40.3 | 0.00 |
| 2026-05-05 07:35 | 33.0 | 95.3 | 31.8 | 2.8 | 314 | 3.5 | 314 | 24.841 | 38.3 | 0.00 |
| 2026-05-05 07:30 | 32.9 | 95.3 | 31.7 | 2.4 | 295 | 2.7 | 295 | 24.843 | 32.1 | 0.00 |
| 2026-05-05 07:25 | 32.8 | 95.2 | 31.6 | 2.2 | 284 | 2.7 | 274 | 24.846 | 25.3 | 0.01 |
| 2026-05-05 07:20 | 32.7 | 95.2 | 31.5 | 1.4 | 274 | 2.1 | 271 | 24.845 | 25.2 | 0.00 |
| 2026-05-05 07:15 | 32.8 | 95.2 | 31.5 | 0.0 | 259 | 0.0 | 250 | 24.846 | 22.9 | 0.00 |
| 2026-05-05 07:10 | 32.7 | 95.2 | 31.5 | 0.5 | 250 | 1.0 | 250 | 24.846 | 19.7 | 0.00 |
| 2026-05-05 07:05 | 32.6 | 95.2 | 31.4 | 1.7 | 250 | 2.3 | 249 | 24.847 | 22.7 | 0.00 |
| 2026-05-05 07:00 | 32.6 | 95.1 | 31.3 | 2.2 | 249 | 2.5 | 247 | 24.847 | 23.1 | 0.00 |
| 2026-05-05 06:55 | 32.5 | 95.0 | 31.3 | 1.6 | 249 | 2.1 | 249 | 24.846 | 19.3 | 0.00 |
| 2026-05-05 06:50 | 32.6 | 95.0 | 31.3 | 1.9 | 244 | 2.8 | 254 | 24.846 | 15.5 | 0.00 |
| 2026-05-05 06:45 | 32.5 | 94.9 | 31.2 | 2.4 | 250 | 3.1 | 261 | 24.847 | 12.6 | 0.00 |
| 2026-05-05 06:40 | 32.6 | 94.8 | 31.3 | 2.4 | 270 | 2.8 | 292 | 24.846 | 12.9 | 0.00 |
| 2026-05-05 06:35 | 32.7 | 94.7 | 31.4 | 3.3 | 291 | 4.1 | 304 | 24.843 | 12.7 | 0.00 |
| 2026-05-05 06:30 | 32.8 | 94.7 | 31.4 | 3.6 | 299 | 4.0 | 303 | 24.839 | 10.8 | 0.00 |
| 2026-05-05 06:25 | 32.9 | 94.4 | 31.4 | 3.5 | 298 | 4.3 | 286 | 24.839 | 9.7 | 0.00 |
| Date Time MST |
Temp °C |
RH % |
DewPt °C |
Wind m/s |
Dir ° |
Gust m/s |
Dir ° |
Press hPa |
Solar W/m^2 |
Prec mm |
|---|---|---|---|---|---|---|---|---|---|---|
| 2026-05-05 08:50 | 1.3 | 95.2 | 0.6 | 1.0 | 236 | 1.4 | 260 | 841.38 | 80.9 | 0.00 |
| 2026-05-05 08:45 | 1.3 | 95.3 | 0.6 | 0.7 | 262 | 1.3 | 262 | 841.38 | 81.6 | 0.25 |
| 2026-05-05 08:40 | 1.1 | 95.3 | 0.5 | 0.9 | 268 | 1.3 | 286 | 841.38 | 79.7 | 0.25 |
| 2026-05-05 08:35 | 1.0 | 95.3 | 0.3 | 0.7 | 283 | 0.9 | 288 | 841.38 | 85.3 | 0.25 |
| 2026-05-05 08:30 | 0.8 | 95.2 | 0.1 | 0.6 | 307 | 0.8 | 310 | 841.37 | 79.6 | 0.25 |
| 2026-05-05 08:25 | 0.8 | 95.0 | 0.1 | 0.2 | 310 | 0.6 | 310 | 841.30 | 75.2 | 0.25 |
| 2026-05-05 08:20 | 0.9 | 95.1 | 0.2 | 0.0 | 296 | 0.0 | 296 | 841.28 | 76.4 | 0.25 |
| 2026-05-05 08:15 | 0.8 | 95.2 | 0.2 | 0.0 | 296 | 0.0 | 296 | 841.30 | 65.2 | 0.00 |
| 2026-05-05 08:10 | 0.8 | 95.2 | 0.1 | 0.0 | 296 | 0.0 | 296 | 841.29 | 51.0 | 0.51 |
| 2026-05-05 08:05 | 0.8 | 95.3 | 0.1 | 0.1 | 296 | 0.4 | 294 | 841.29 | 51.0 | 0.00 |
| 2026-05-05 08:00 | 0.7 | 95.4 | 0.1 | 0.7 | 294 | 1.0 | 315 | 841.28 | 58.5 | 0.00 |
| 2026-05-05 07:55 | 0.6 | 95.4 | -0.0 | 0.8 | 315 | 1.1 | 319 | 841.27 | 63.8 | 0.00 |
| 2026-05-05 07:50 | 0.6 | 95.4 | -0.1 | 1.2 | 319 | 1.4 | 322 | 841.22 | 61.6 | 0.00 |
| 2026-05-05 07:45 | 0.6 | 95.3 | -0.1 | 1.4 | 323 | 1.5 | 320 | 841.15 | 49.5 | 0.00 |
| 2026-05-05 07:40 | 0.6 | 95.2 | -0.1 | 1.5 | 315 | 1.6 | 315 | 841.15 | 40.3 | 0.00 |
| 2026-05-05 07:35 | 0.6 | 95.3 | -0.1 | 1.3 | 314 | 1.5 | 314 | 841.22 | 38.3 | 0.00 |
| 2026-05-05 07:30 | 0.5 | 95.3 | -0.2 | 1.1 | 295 | 1.2 | 295 | 841.29 | 32.1 | 0.00 |
| 2026-05-05 07:25 | 0.4 | 95.2 | -0.2 | 1.0 | 284 | 1.2 | 274 | 841.38 | 25.3 | 0.25 |
| 2026-05-05 07:20 | 0.4 | 95.2 | -0.3 | 0.6 | 274 | 0.9 | 271 | 841.36 | 25.2 | 0.00 |
| 2026-05-05 07:15 | 0.4 | 95.2 | -0.3 | 0.0 | 259 | 0.0 | 250 | 841.37 | 22.9 | 0.00 |
| 2026-05-05 07:10 | 0.4 | 95.2 | -0.3 | 0.2 | 250 | 0.5 | 250 | 841.38 | 19.7 | 0.00 |
| 2026-05-05 07:05 | 0.3 | 95.2 | -0.3 | 0.8 | 250 | 1.0 | 249 | 841.43 | 22.7 | 0.00 |
| 2026-05-05 07:00 | 0.3 | 95.1 | -0.4 | 1.0 | 249 | 1.1 | 247 | 841.41 | 23.1 | 0.00 |
| 2026-05-05 06:55 | 0.3 | 95.0 | -0.4 | 0.7 | 249 | 0.9 | 249 | 841.39 | 19.3 | 0.00 |
| 2026-05-05 06:50 | 0.3 | 95.0 | -0.4 | 0.8 | 244 | 1.2 | 254 | 841.39 | 15.5 | 0.00 |
| 2026-05-05 06:45 | 0.3 | 94.9 | -0.4 | 1.1 | 250 | 1.4 | 261 | 841.42 | 12.6 | 0.00 |
| 2026-05-05 06:40 | 0.4 | 94.8 | -0.4 | 1.1 | 270 | 1.3 | 292 | 841.38 | 12.9 | 0.00 |
| 2026-05-05 06:35 | 0.4 | 94.7 | -0.3 | 1.5 | 291 | 1.8 | 304 | 841.27 | 12.7 | 0.00 |
| 2026-05-05 06:30 | 0.4 | 94.7 | -0.3 | 1.6 | 299 | 1.8 | 303 | 841.14 | 10.8 | 0.00 |
| 2026-05-05 06:25 | 0.5 | 94.4 | -0.3 | 1.6 | 298 | 1.9 | 286 | 841.15 | 9.7 | 0.00 |

Technical Web Developer
Cooperative Institute for Research in the Atmosphere
Colorado State University
1375 Campus Delivery
Fort Collins, CO 80523-1375